Time;durP1;ratioP1;P1;durP2;ratioP2;P2;SDS_P1;SDS_P2;PMS_P1;PMS_P2;Temp;Humidity;BMP_temperature;BMP_pressure;BME280_temperature;BME280_humidity;BME280_pressure;Samples;Min_cycle;Max_cycle;Signal;HPM_P1;HPM_P2
2021/10/01 00:00:30;;;;;;;8.10;7.07;;;;;21.00;100960.00;;;;2095543;28;20216;-56
2021/10/01 00:01:31;;;;;;;8.40;7.50;;;;;21.00;100965.00;;;;2094717;28;20744;-56
2021/10/01 00:02:31;;;;;;;8.13;6.80;;;;;21.00;100956.00;;;;2094711;28;20321;-56
2021/10/01 00:03:31;;;;;;;10.77;7.37;;;;;21.00;100959.00;;;;2094957;28;20223;-54
2021/10/01 00:04:32;;;;;;;8.00;6.57;;;;;21.00;100961.00;;;;2094549;28;20304;-55
2021/10/01 00:05:32;;;;;;;8.60;7.30;;;;;21.00;100956.00;;;;2095291;28;20216;-56
2021/10/01 00:06:33;;;;;;;8.33;6.80;;;;;21.00;100962.00;;;;2091696;28;20225;-53
2021/10/01 00:07:33;;;;;;;8.53;7.10;;;;;21.00;100955.00;;;;2089873;28;20217;-57
2021/10/01 00:08:33;;;;;;;7.20;6.40;;;;;21.00;100955.00;;;;2089824;28;20319;-54
2021/10/01 00:09:34;;;;;;;8.13;6.33;;;;;21.00;100944.00;;;;2086037;28;20213;-54
2021/10/01 00:10:35;;;;;;;7.90;6.37;;;;;21.00;100945.00;;;;2086418;28;20217;-55
2021/10/01 00:11:35;;;;;;;8.27;6.60;;;;;21.00;100943.00;;;;2086479;28;20216;-55
2021/10/01 00:12:35;;;;;;;8.00;6.70;;;;;21.00;100943.00;;;;2086289;28;20225;-55
2021/10/01 00:13:37;;;;;;;7.37;6.57;;;;;20.90;100946.00;;;;2086760;28;20270;-53
2021/10/01 00:14:37;;;;;;;7.07;5.93;;;;;21.00;100937.00;;;;2086493;28;20561;-56
2021/10/01 00:15:38;;;;;;;7.37;5.70;;;;;20.90;100932.00;;;;2085799;28;20220;-54
2021/10/01 00:16:38;;;;;;;8.10;6.00;;;;;21.00;100939.00;;;;2086971;28;20227;-55
2021/10/01 00:17:38;;;;;;;7.10;5.63;;;;;20.90;100930.00;;;;2090212;28;20223;-57
2021/10/01 00:18:39;;;;;;;7.20;5.00;;;;;20.90;100933.00;;;;2095278;28;20216;-56
2021/10/01 00:19:39;;;;;;;7.00;5.50;;;;;20.90;100933.00;;;;2082074;28;20228;-55
2021/10/01 00:20:40;;;;;;;6.90;5.87;;;;;20.90;100942.00;;;;2087826;28;20231;-55
2021/10/01 00:21:40;;;;;;;7.23;5.90;;;;;20.90;100926.00;;;;2095238;28;20270;-54
2021/10/01 00:22:41;;;;;;;7.10;5.33;;;;;21.00;100931.00;;;;2095291;28;20319;-53
2021/10/01 00:23:41;;;;;;;6.93;5.47;;;;;21.00;100931.00;;;;2095292;28;20358;-55
2021/10/01 00:24:42;;;;;;;7.00;5.20;;;;;21.00;100930.00;;;;2088362;28;20278;-57
2021/10/01 00:25:42;;;;;;;5.90;4.90;;;;;20.90;100934.00;;;;2087785;28;20462;-54
2021/10/01 00:26:43;;;;;;;7.30;5.90;;;;;20.90;100932.00;;;;2078040;28;20290;-56
2021/10/01 00:27:43;;;;;;;6.87;5.70;;;;;20.90;100927.00;;;;2087013;28;20235;-58
2021/10/01 00:28:44;;;;;;;6.37;5.20;;;;;20.90;100927.00;;;;2088172;28;20588;-60
2021/10/01 00:29:44;;;;;;;5.10;4.33;;;;;20.90;100925.00;;;;2093401;28;20592;-55
2021/10/01 00:30:45;;;;;;;5.23;4.50;;;;;20.90;100928.00;;;;2103985;28;20578;-54
2021/10/01 00:31:45;;;;;;;5.50;4.50;;;;;20.90;100923.00;;;;2093973;28;20215;-57
2021/10/01 00:32:46;;;;;;;5.90;5.27;;;;;20.90;100926.00;;;;2096343;28;20216;-56
2021/10/01 00:33:46;;;;;;;6.53;4.60;;;;;20.90;100922.00;;;;2089401;28;20222;-54
2021/10/01 00:34:49;;;;;;;6.20;4.70;;;;;20.90;100919.00;;;;2090596;28;20455;-54
2021/10/01 00:35:50;;;;;;;6.15;4.63;;;;;20.90;100922.00;;;;2095979;28;20243;-56
2021/10/01 00:36:51;;;;;;;4.90;4.33;;;;;20.90;100924.00;;;;2091588;28;20208;-54
2021/10/01 00:37:51;;;;;;;5.40;4.23;;;;;20.90;100915.00;;;;2090610;28;20204;-56
2021/10/01 00:38:51;;;;;;;7.20;4.93;;;;;20.90;100920.00;;;;2090147;28;20756;-55
2021/10/01 00:39:53;;;;;;;5.90;4.30;;;;;20.90;100910.00;;;;2088225;28;21258;-55
2021/10/01 00:40:53;;;;;;;5.10;4.18;;;;;20.90;100909.00;;;;2088280;28;20232;-54
2021/10/01 00:41:54;;;;;;;5.27;4.17;;;;;20.90;100920.00;;;;2087462;28;20205;-55
2021/10/01 00:42:54;;;;;;;5.57;4.30;;;;;20.90;100905.00;;;;2086980;28;20233;-56
2021/10/01 00:43:55;;;;;;;5.30;3.97;;;;;20.90;100911.00;;;;2088376;28;20208;-55
2021/10/01 00:44:55;;;;;;;5.17;4.10;;;;;20.90;100908.00;;;;2088206;28;20219;-56
2021/10/01 00:45:56;;;;;;;5.90;4.20;;;;;20.90;100908.00;;;;2088277;28;20450;-56
2021/10/01 00:46:56;;;;;;;4.97;3.90;;;;;20.90;100903.00;;;;2087984;28;20209;-57
2021/10/01 00:47:56;;;;;;;4.73;3.70;;;;;20.90;100905.00;;;;2087826;28;20708;-56
2021/10/01 00:48:57;;;;;;;4.80;3.77;;;;;20.90;100902.00;;;;2086167;28;20205;-52
2021/10/01 00:49:57;;;;;;;5.13;4.30;;;;;20.90;100906.00;;;;2087096;28;20209;-57
2021/10/01 00:50:58;;;;;;;4.27;3.67;;;;;20.90;100898.00;;;;2087643;28;20205;-55
2021/10/01 00:51:58;;;;;;;4.90;3.43;;;;;20.90;100888.00;;;;2087814;28;20743;-56
2021/10/01 00:52:59;;;;;;;6.60;3.27;;;;;20.90;100894.00;;;;2087190;28;21009;-53
2021/10/01 00:53:59;;;;;;;5.77;3.50;;;;;20.90;100906.00;;;;2087452;28;20205;-56
2021/10/01 00:55:01;;;;;;;3.90;3.10;;;;;20.90;100904.00;;;;2088257;28;20208;-55
2021/10/01 00:56:02;;;;;;;4.95;3.55;;;;;20.90;100897.00;;;;2087306;28;20227;-54
2021/10/01 00:57:02;;;;;;;4.77;3.67;;;;;20.90;100891.00;;;;2087544;28;20220;-56
2021/10/01 00:58:02;;;;;;;4.50;3.50;;;;;20.80;100893.00;;;;2088473;28;20221;-54
2021/10/01 00:59:03;;;;;;;4.13;3.43;;;;;20.90;100890.00;;;;2086987;28;20270;-54
2021/10/01 01:00:04;;;;;;;5.37;3.40;;;;;20.80;100891.00;;;;2088100;28;20220;-54
2021/10/01 01:01:11;;;;;;;4.47;3.00;;;;;20.90;100890.00;;;;2092159;28;20216;-56
2021/10/01 01:02:11;;;;;;;4.03;3.10;;;;;20.90;100889.00;;;;2096526;28;20301;-56
2021/10/01 01:03:12;;;;;;;4.43;3.30;;;;;20.80;100883.00;;;;2096558;28;20216;-53
2021/10/01 01:04:12;;;;;;;3.77;3.20;;;;;20.90;100885.00;;;;2095604;28;20696;-53
2021/10/01 01:05:13;;;;;;;3.50;3.10;;;;;20.90;100896.00;;;;2094932;28;20215;-55
2021/10/01 01:06:19;;;;;;;3.10;2.80;;;;;20.90;100888.00;;;;2084748;28;20220;-55
2021/10/01 01:07:39;;;;;;;3.50;3.20;;;;;20.90;100885.00;;;;2078053;28;20213;-54
2021/10/01 01:08:47;;;;;;;3.60;2.78;;;;;20.90;100890.00;;;;2090167;28;20962;-53
2021/10/01 01:10:08;;;;;;;4.05;3.20;;;;;20.90;100885.00;;;;2085971;28;20223;-56
2021/10/01 01:11:23;;;;;;;3.35;2.63;;;;;20.80;100881.00;;;;2084103;28;20346;-56
2021/10/01 01:12:51;;;;;;;3.28;2.60;;;;;20.80;100886.00;;;;2087069;28;20208;-54
2021/10/01 01:13:58;;;;;;;3.17;2.40;;;;;20.80;100881.00;;;;2087620;28;20209;-58
2021/10/01 01:15:08;;;;;;;4.57;2.70;;;;;20.80;100881.00;;;;2079172;28;20205;-56
2021/10/01 01:16:11;;;;;;;3.25;2.30;;;;;20.80;100886.00;;;;2080589;28;20210;-55
2021/10/01 01:17:14;;;;;;;2.92;2.65;;;;;20.80;100877.00;;;;2072638;28;22504;-56
2021/10/01 01:18:23;;;;;;;3.58;2.42;;;;;20.80;100882.00;;;;2072071;28;20237;-54
2021/10/01 01:19:30;;;;;;;3.72;3.03;;;;;20.80;100881.00;;;;2078464;28;20221;-54
2021/10/01 01:20:58;;;;;;;5.15;2.50;;;;;20.80;100878.00;;;;2087404;28;20211;-56
2021/10/01 01:22:08;;;;;;;3.88;2.70;;;;;20.80;100879.00;;;;2074736;28;20776;-55
2021/10/01 01:23:46;;;;;;;2.97;2.45;;;;;20.80;100868.00;;;;2075692;28;20699;-54
2021/10/01 01:25:20;;;;;;;2.50;2.20;;;;;20.80;100870.00;;;;2087042;28;20681;-54
2021/10/01 01:26:54;;;;;;;2.92;2.25;;;;;20.80;100876.00;;;;2087888;28;20285;-54
2021/10/01 01:28:07;;;;;;;3.40;2.38;;;;;20.80;100880.00;;;;2086998;28;20240;-54
2021/10/01 01:29:16;;;;;;;4.30;2.13;;;;;20.80;100877.00;;;;2087416;28;20200;-55
2021/10/01 01:30:19;;;;;;;3.10;2.58;;;;;20.80;100873.00;;;;2087651;28;20270;-57
2021/10/01 01:31:44;;;;;;;2.28;1.88;;;;;20.80;100873.00;;;;2086910;28;20220;-55
2021/10/01 01:32:46;;;;;;;3.95;2.35;;;;;20.80;100867.00;;;;2086549;28;20270;-55
2021/10/01 01:33:46;;;;;;;3.13;2.30;;;;;20.80;100857.00;;;;2086972;28;20236;-54
2021/10/01 01:34:53;;;;;;;3.97;2.50;;;;;20.80;100874.00;;;;2086918;28;20237;-55
2021/10/01 01:35:56;;;;;;;3.20;2.55;;;;;20.80;100871.00;;;;2078336;28;20218;-54
2021/10/01 01:36:59;;;;;;;3.50;2.30;;;;;20.80;100867.00;;;;2057983;28;20242;-54
2021/10/01 01:38:09;;;;;;;2.80;2.30;;;;;20.80;100869.00;;;;2067948;28;20222;-54
2021/10/01 01:39:10;;;;;;;2.17;1.83;;;;;20.80;100868.00;;;;2066638;28;20222;-57
2021/10/01 01:40:11;;;;;;;4.43;2.30;;;;;20.80;100861.00;;;;2062459;28;20354;-58
2021/10/01 01:41:12;;;;;;;2.40;1.67;;;;;20.80;100864.00;;;;2062971;28;20211;-57
2021/10/01 01:42:12;;;;;;;3.90;2.20;;;;;20.80;100857.00;;;;2076170;28;20213;-55
2021/10/01 01:43:12;;;;;;;2.77;1.70;;;;;20.80;100834.00;;;;2076551;28;20259;-55
2021/10/01 01:44:13;;;;;;;2.73;2.10;;;;;20.80;100861.00;;;;2085457;28;20686;-55
2021/10/01 01:45:14;;;;;;;3.17;1.77;;;;;20.80;100857.00;;;;2086682;28;20274;-54
2021/10/01 01:46:15;;;;;;;2.30;2.10;;;;;20.80;100849.00;;;;2086808;28;20771;-55
2021/10/01 01:47:15;;;;;;;3.80;1.87;;;;;20.80;100855.00;;;;2086224;28;20219;-55
2021/10/01 01:48:16;;;;;;;2.50;2.10;;;;;20.80;100857.00;;;;2086942;28;21078;-55
2021/10/01 01:49:16;;;;;;;2.70;1.93;;;;;20.80;100853.00;;;;2078380;28;20336;-54
2021/10/01 01:50:17;;;;;;;3.10;1.83;;;;;20.80;100849.00;;;;2079115;28;20214;-56
2021/10/01 01:51:17;;;;;;;2.73;1.67;;;;;20.80;100846.00;;;;2088158;28;20705;-54
2021/10/01 01:52:17;;;;;;;3.20;2.07;;;;;20.80;100844.00;;;;2088082;28;20213;-54
2021/10/01 01:53:18;;;;;;;3.10;1.63;;;;;20.80;100849.00;;;;2086924;28;20216;-54
2021/10/01 01:54:18;;;;;;;2.37;1.60;;;;;20.80;100854.00;;;;2086393;28;20275;-54
2021/10/01 01:55:19;;;;;;;2.27;1.67;;;;;20.80;100851.00;;;;2086230;28;20303;-55
2021/10/01 01:56:19;;;;;;;3.00;1.70;;;;;20.80;100844.00;;;;2077812;28;20239;-55
2021/10/01 01:57:20;;;;;;;2.33;1.60;;;;;20.70;100854.00;;;;2075793;28;20263;-53
2021/10/01 01:58:20;;;;;;;2.10;1.70;;;;;20.80;100858.00;;;;2075553;28;20729;-55
2021/10/01 01:59:21;;;;;;;2.50;1.90;;;;;20.80;100852.00;;;;2077897;28;20237;-55
2021/10/01 02:00:21;;;;;;;1.87;1.50;;;;;20.80;100857.00;;;;2078071;28;20216;-54
2021/10/01 02:01:22;;;;;;;2.00;1.50;;;;;20.70;100848.00;;;;2069194;28;20224;-55
2021/10/01 02:02:22;;;;;;;1.80;1.43;;;;;20.80;100832.00;;;;2078122;28;20308;-53
2021/10/01 02:03:23;;;;;;;2.63;1.60;;;;;20.70;100845.00;;;;2086276;28;20586;-53
2021/10/01 02:04:23;;;;;;;1.83;1.47;;;;;20.70;100832.00;;;;2090948;28;20296;-53
2021/10/01 02:05:24;;;;;;;2.03;1.57;;;;;20.80;100844.00;;;;2087887;28;20215;-54
2021/10/01 02:06:24;;;;;;;1.73;1.07;;;;;20.80;100838.00;;;;2087859;28;20601;-55
2021/10/01 02:07:25;;;;;;;2.20;1.40;;;;;20.80;100847.00;;;;2090432;28;20213;-54
2021/10/01 02:08:25;;;;;;;1.73;1.33;;;;;20.70;100829.00;;;;2091219;28;20677;-57
2021/10/01 02:09:25;;;;;;;2.33;1.53;;;;;20.70;100825.00;;;;2079677;28;20245;-54
2021/10/01 02:10:26;;;;;;;2.67;1.43;;;;;20.80;100831.00;;;;2081994;28;20216;-54
2021/10/01 02:11:26;;;;;;;2.53;1.30;;;;;20.80;100835.00;;;;2086734;28;20217;-56
2021/10/01 02:12:27;;;;;;;2.43;1.43;;;;;20.80;100824.00;;;;2094973;28;20215;-54
2021/10/01 02:13:28;;;;;;;2.38;1.35;;;;;20.80;100829.00;;;;2095504;28;20212;-54
2021/10/01 02:14:29;;;;;;;2.43;1.60;;;;;20.80;100834.00;;;;2087249;28;20212;-54
2021/10/01 02:15:30;;;;;;;1.93;1.30;;;;;20.80;100828.00;;;;2086839;28;20224;-59
2021/10/01 02:16:30;;;;;;;1.77;1.02;;;;;20.80;100829.00;;;;2095465;28;20967;-55
2021/10/01 02:17:32;;;;;;;1.40;1.17;;;;;20.70;100828.00;;;;2094989;28;20211;-56
2021/10/01 02:18:33;;;;;;;4.00;1.70;;;;;20.70;100822.00;;;;2095174;28;20286;-55
2021/10/01 02:19:33;;;;;;;1.70;1.60;;;;;20.70;100821.00;;;;2094137;28;21102;-53
2021/10/01 02:20:34;;;;;;;2.70;1.47;;;;;20.70;100816.00;;;;2094817;28;20291;-55
2021/10/01 02:21:35;;;;;;;2.30;1.50;;;;;20.70;100817.00;;;;2084846;28;20292;-56
2021/10/01 02:22:35;;;;;;;2.20;1.67;;;;;20.70;100810.00;;;;2094862;28;20596;-55
2021/10/01 02:23:36;;;;;;;2.03;1.33;;;;;20.70;100814.00;;;;2094421;28;20213;-55
2021/10/01 02:24:36;;;;;;;1.47;1.30;;;;;20.70;100815.00;;;;2086364;28;20378;-54
2021/10/01 02:27:04;;;;;;;2.33;1.20;;;;;20.70;100811.00;;;;2072738;28;20205;-54
2021/10/01 02:28:07;;;;;;;1.83;0.95;;;;;20.70;100807.00;;;;2093035;28;20219;-55
2021/10/01 02:29:30;;;;;;;3.20;1.40;;;;;20.70;100805.00;;;;2093296;28;20201;-55
2021/10/01 02:30:32;;;;;;;2.67;1.30;;;;;20.70;100811.00;;;;2095201;28;20222;-55
2021/10/01 02:31:37;;;;;;;1.40;1.20;;;;;20.70;100800.00;;;;2086723;28;20212;-58
2021/10/01 02:32:42;;;;;;;1.52;1.17;;;;;20.70;100799.00;;;;2095343;28;20223;-55
2021/10/01 02:33:44;;;;;;;1.50;1.30;;;;;20.70;100807.00;;;;2095287;28;21288;-55
2021/10/01 02:34:45;;;;;;;1.45;1.10;;;;;20.70;100797.00;;;;2094968;28;20256;-53
2021/10/01 02:35:46;;;;;;;3.75;1.05;;;;;20.70;100799.00;;;;2095162;28;20286;-57
2021/10/01 02:36:46;;;;;;;1.80;1.13;;;;;20.70;100795.00;;;;2091642;28;20200;-56
2021/10/01 02:37:47;;;;;;;2.27;1.23;;;;;20.70;100799.00;;;;2089233;28;20204;-56
2021/10/01 02:38:47;;;;;;;1.60;0.97;;;;;20.70;100799.00;;;;2088268;28;20231;-55
2021/10/01 02:39:49;;;;;;;2.13;1.40;;;;;20.70;100804.00;;;;2086107;28;20213;-56
2021/10/01 02:40:49;;;;;;;3.30;1.00;;;;;20.70;100800.00;;;;2087666;28;20215;-55
2021/10/01 02:41:50;;;;;;;1.97;1.10;;;;;20.70;100797.00;;;;2087613;28;20593;-56
2021/10/01 02:42:50;;;;;;;2.47;1.20;;;;;20.70;100797.00;;;;2086701;28;20221;-56
2021/10/01 02:43:50;;;;;;;2.20;1.47;;;;;20.70;100802.00;;;;2086959;28;20255;-54
2021/10/01 02:44:51;;;;;;;2.57;1.20;;;;;20.70;100796.00;;;;2087543;28;20208;-54
2021/10/01 02:45:52;;;;;;;2.40;1.17;;;;;20.70;100800.00;;;;2086755;28;20259;-56
2021/10/01 02:46:52;;;;;;;2.30;1.30;;;;;20.70;100788.00;;;;2087083;28;20642;-55
2021/10/01 02:47:53;;;;;;;1.47;0.90;;;;;20.70;100798.00;;;;2086203;28;20209;-54
2021/10/01 02:48:53;;;;;;;1.30;1.00;;;;;20.70;100794.00;;;;2084946;28;20262;-54
2021/10/01 02:49:54;;;;;;;1.63;1.10;;;;;20.70;100787.00;;;;2088736;28;20693;-55
2021/10/01 02:51:02;;;;;;;2.90;1.30;;;;;20.70;100793.00;;;;2095951;28;20572;-55
2021/10/01 02:52:16;;;;;;;1.50;1.13;;;;;20.70;100785.00;;;;2095029;28;20677;-55
2021/10/01 02:53:29;;;;;;;2.70;1.10;;;;;20.70;100786.00;;;;2093450;28;20212;-56
2021/10/01 02:54:36;;;;;;;1.83;1.10;;;;;20.70;100793.00;;;;2094990;28;20215;-55
2021/10/01 02:55:47;;;;;;;1.50;1.00;;;;;20.70;100793.00;;;;2094951;28;20216;-55
2021/10/01 02:56:52;;;;;;;1.30;0.68;;;;;20.60;100786.00;;;;2095607;28;20273;-54
2021/10/01 02:57:59;;;;;;;1.50;0.85;;;;;20.70;100790.00;;;;2085931;28;20212;-54
2021/10/01 02:59:03;;;;;;;2.47;1.15;;;;;20.60;100780.00;;;;2078911;28;20216;-54
2021/10/01 03:00:04;;;;;;;1.33;0.95;;;;;20.70;100783.00;;;;2094497;28;20212;-53
2021/10/01 03:01:07;;;;;;;1.65;0.90;;;;;20.70;100779.00;;;;2095098;28;20704;-56
2021/10/01 03:02:08;;;;;;;1.30;0.95;;;;;20.60;100786.00;;;;2093896;28;20306;-55
2021/10/01 03:03:21;;;;;;;1.60;0.90;;;;;20.70;100786.00;;;;2094282;28;20341;-55
2021/10/01 03:04:21;;;;;;;2.20;1.20;;;;;20.70;100781.00;;;;2094528;28;20283;-54
2021/10/01 03:05:22;;;;;;;1.63;1.07;;;;;20.70;100776.00;;;;2094276;28;20203;-55
2021/10/01 03:06:23;;;;;;;1.90;0.80;;;;;20.70;100789.00;;;;2084507;28;20216;-54
2021/10/01 03:07:24;;;;;;;1.60;0.80;;;;;20.60;100784.00;;;;2077762;28;20264;-53
2021/10/01 03:08:25;;;;;;;1.48;0.80;;;;;20.60;100781.00;;;;2083896;28;20587;-55
2021/10/01 03:09:27;;;;;;;1.52;0.88;;;;;20.60;100782.00;;;;2078467;28;20209;-53
2021/10/01 03:10:28;;;;;;;1.30;0.93;;;;;20.70;100773.00;;;;2078544;28;20703;-54
2021/10/01 03:11:29;;;;;;;1.80;1.00;;;;;20.70;100768.00;;;;2086309;28;20303;-54
2021/10/01 03:12:29;;;;;;;1.40;0.77;;;;;20.60;100765.00;;;;2082389;28;20220;-55
2021/10/01 03:13:29;;;;;;;2.40;1.10;;;;;20.60;100756.00;;;;2088489;28;21018;-55
2021/10/01 03:14:30;;;;;;;1.23;0.70;;;;;20.60;100765.00;;;;2085908;28;20209;-54
2021/10/01 03:15:30;;;;;;;1.10;0.83;;;;;20.70;100765.00;;;;2085524;28;20255;-54
2021/10/01 03:16:31;;;;;;;1.53;0.90;;;;;20.70;100763.00;;;;2086899;28;20240;-56
2021/10/01 03:17:32;;;;;;;1.80;0.93;;;;;20.60;100762.00;;;;2085759;28;20263;-57
2021/10/01 03:18:32;;;;;;;2.97;0.90;;;;;20.70;100762.00;;;;2089353;28;20219;-54
2021/10/01 03:19:34;;;;;;;1.37;0.80;;;;;20.70;100758.00;;;;2093070;28;20224;-56
2021/10/01 03:20:34;;;;;;;1.77;0.70;;;;;20.60;100765.00;;;;2092321;28;20216;-53
2021/10/01 03:21:34;;;;;;;1.30;0.90;;;;;20.60;100757.00;;;;2094333;28;20295;-54
2021/10/01 03:22:38;;;;;;;1.77;0.90;;;;;20.60;100755.00;;;;2094770;28;20231;-55
2021/10/01 03:23:38;;;;;;;2.97;0.95;;;;;20.60;100758.00;;;;2094794;28;20227;-53
2021/10/01 03:24:39;;;;;;;1.43;0.93;;;;;20.60;100755.00;;;;2086142;28;20308;-59
2021/10/01 03:25:39;;;;;;;2.30;1.13;;;;;20.60;100755.00;;;;2070179;28;20750;-57
2021/10/01 03:26:39;;;;;;;1.03;0.80;;;;;20.60;100763.00;;;;2085275;28;20327;-58
2021/10/01 03:27:40;;;;;;;1.33;1.00;;;;;20.60;100764.00;;;;2085733;28;20229;-54
2021/10/01 03:28:41;;;;;;;1.80;1.05;;;;;20.60;100764.00;;;;2085672;28;20216;-55
2021/10/01 03:29:42;;;;;;;1.90;1.27;;;;;20.60;100766.00;;;;2093890;28;20300;-56
2021/10/01 03:30:42;;;;;;;1.27;0.70;;;;;20.60;100776.00;;;;2085031;28;20212;-57
2021/10/01 03:31:44;;;;;;;1.20;0.63;;;;;20.60;100764.00;;;;2094619;28;20220;-55
2021/10/01 03:32:45;;;;;;;1.77;0.77;;;;;20.60;100755.00;;;;2094725;28;20605;-56
2021/10/01 03:33:46;;;;;;;1.08;0.82;;;;;20.60;100760.00;;;;2094506;28;20231;-56
2021/10/01 03:34:46;;;;;;;1.90;0.90;;;;;20.60;100775.00;;;;2095402;28;20307;-56
2021/10/01 03:35:47;;;;;;;1.33;0.80;;;;;20.60;100763.00;;;;2095401;28;20208;-56
2021/10/01 03:36:47;;;;;;;4.10;1.10;;;;;20.60;100753.00;;;;2091487;28;20234;-55
2021/10/01 03:37:48;;;;;;;1.70;1.20;;;;;20.60;100749.00;;;;2090302;28;20281;-55
2021/10/01 03:38:48;;;;;;;2.03;1.00;;;;;20.60;100769.00;;;;2087544;28;20458;-53
2021/10/01 03:40:05;;;;;;;1.00;0.70;;;;;20.60;100762.00;;;;2078107;28;20217;-53
2021/10/01 03:41:06;;;;;;;1.27;0.73;;;;;20.60;100763.00;;;;2086439;28;20247;-55
2021/10/01 03:42:06;;;;;;;1.97;1.00;;;;;20.60;100756.00;;;;2087094;28;20295;-56
2021/10/01 03:43:07;;;;;;;1.43;0.70;;;;;20.60;100764.00;;;;2087211;28;20221;-55
2021/10/01 03:44:07;;;;;;;1.33;0.73;;;;;20.60;100753.00;;;;2087294;28;20220;-55
2021/10/01 03:45:09;;;;;;;1.10;0.70;;;;;20.60;100760.00;;;;2086824;28;20209;-56
2021/10/01 03:46:09;;;;;;;1.85;0.80;;;;;20.60;100751.00;;;;2087392;28;20213;-54
2021/10/01 03:47:09;;;;;;;1.40;0.80;;;;;20.60;100759.00;;;;2087115;28;20303;-55
2021/10/01 03:48:10;;;;;;;1.70;0.70;;;;;20.60;100756.00;;;;2087231;28;20224;-56
2021/10/01 03:49:10;;;;;;;2.10;0.80;;;;;20.60;100760.00;;;;2086125;28;20215;-55
2021/10/01 03:50:11;;;;;;;1.53;0.90;;;;;20.60;100752.00;;;;2087073;28;20213;-55
2021/10/01 03:51:11;;;;;;;0.90;0.70;;;;;20.60;100745.00;;;;2086862;28;20847;-54
2021/10/01 03:52:13;;;;;;;2.20;1.10;;;;;20.60;100753.00;;;;2087219;28;20580;-55
2021/10/01 03:53:13;;;;;;;2.00;0.70;;;;;20.60;100744.00;;;;2078406;28;20588;-53
2021/10/01 03:54:14;;;;;;;1.73;0.80;;;;;20.60;100751.00;;;;2078615;28;20241;-53
2021/10/01 03:55:20;;;;;;;1.03;0.70;;;;;20.60;100741.00;;;;2078825;28;20456;-54
2021/10/01 03:56:21;;;;;;;1.38;0.70;;;;;20.60;100743.00;;;;2078661;28;20221;-54
2021/10/01 03:57:21;;;;;;;1.47;0.60;;;;;20.60;100743.00;;;;2074759;28;20243;-53
2021/10/01 03:58:21;;;;;;;2.77;0.97;;;;;20.50;100748.00;;;;2094276;28;20220;-54
2021/10/01 03:59:22;;;;;;;2.83;0.80;;;;;20.60;100746.00;;;;2085942;28;21241;-56
2021/10/01 04:00:24;;;;;;;2.57;1.00;;;;;20.60;100737.00;;;;2084959;28;20244;-54
2021/10/01 04:01:24;;;;;;;1.10;0.80;;;;;20.60;100740.00;;;;2084913;28;20270;-55
2021/10/01 04:02:24;;;;;;;1.40;0.80;;;;;20.60;100752.00;;;;2086681;28;20217;-55
2021/10/01 04:03:25;;;;;;;1.90;0.90;;;;;20.60;100747.00;;;;2078952;28;20209;-55
2021/10/01 04:04:25;;;;;;;0.90;0.67;;;;;20.60;100747.00;;;;2078593;28;20202;-55
2021/10/01 04:05:25;;;;;;;1.00;0.73;;;;;20.60;100754.00;;;;2078898;28;20220;-53
2021/10/01 04:06:26;;;;;;;1.10;0.83;;;;;20.60;100744.00;;;;2079280;28;20258;-55
2021/10/01 04:07:26;;;;;;;1.60;0.80;;;;;20.60;100744.00;;;;2081384;28;20296;-55
2021/10/01 04:08:27;;;;;;;1.50;0.80;;;;;20.60;100740.00;;;;2079711;28;20218;-55
2021/10/01 04:09:28;;;;;;;1.10;0.80;;;;;20.60;100742.00;;;;2078478;28;20229;-54
2021/10/01 04:10:29;;;;;;;0.90;0.77;;;;;20.60;100740.00;;;;2078010;28;20201;-54
2021/10/01 04:11:29;;;;;;;1.83;0.70;;;;;20.60;100733.00;;;;2078272;28;20296;-55
2021/10/01 04:12:29;;;;;;;1.73;0.97;;;;;20.60;100739.00;;;;2078766;28;20210;-56
2021/10/01 04:13:30;;;;;;;1.00;0.80;;;;;20.60;100738.00;;;;2078972;28;20214;-53
2021/10/01 04:14:32;;;;;;;1.57;0.80;;;;;20.60;100735.00;;;;2078039;28;20210;-54
2021/10/01 04:15:32;;;;;;;1.10;0.60;;;;;20.60;100737.00;;;;2078117;28;20268;-55
2021/10/01 04:16:32;;;;;;;1.37;0.90;;;;;20.60;100735.00;;;;2078708;28;20241;-57
2021/10/01 04:17:33;;;;;;;1.87;0.90;;;;;20.60;100742.00;;;;2078712;28;20225;-54
2021/10/01 04:18:33;;;;;;;2.07;0.70;;;;;20.60;100738.00;;;;2078175;28;20707;-55
2021/10/01 04:19:34;;;;;;;2.07;0.80;;;;;20.60;100730.00;;;;2080052;28;20220;-55
2021/10/01 04:20:36;;;;;;;1.30;0.80;;;;;20.60;100735.00;;;;2086533;28;20228;-55
2021/10/01 04:21:36;;;;;;;2.10;0.90;;;;;20.60;100727.00;;;;2085849;28;20228;-58
2021/10/01 04:22:37;;;;;;;1.50;0.87;;;;;20.60;100721.00;;;;2086765;28;20232;-56
2021/10/01 04:23:37;;;;;;;1.63;0.73;;;;;20.60;100725.00;;;;2086254;28;20730;-54
2021/10/01 04:24:38;;;;;;;1.30;0.70;;;;;20.60;100725.00;;;;2086970;28;20208;-55
2021/10/01 04:25:38;;;;;;;1.37;0.60;;;;;20.60;100731.00;;;;2087007;28;20221;-56
2021/10/01 04:26:39;;;;;;;1.40;0.90;;;;;20.60;100731.00;;;;2086783;28;20244;-54
2021/10/01 04:27:39;;;;;;;1.90;0.70;;;;;20.50;100723.00;;;;2086651;28;20320;-54
2021/10/01 04:28:39;;;;;;;1.63;0.77;;;;;20.50;100727.00;;;;2086797;28;20212;-54
2021/10/01 04:29:42;;;;;;;1.20;0.60;;;;;20.50;100726.00;;;;2084288;28;20927;-54
2021/10/01 04:30:44;;;;;;;1.20;0.60;;;;;20.50;100725.00;;;;2086199;28;20200;-56
2021/10/01 04:31:45;;;;;;;1.20;0.70;;;;;20.60;100725.00;;;;2085254;28;20214;-57
2021/10/01 04:32:49;;;;;;;1.50;0.77;;;;;20.60;100721.00;;;;2086473;28;20674;-56
2021/10/01 04:33:50;;;;;;;1.23;0.60;;;;;20.60;100723.00;;;;2077658;28;20213;-56
2021/10/01 04:35:03;;;;;;;1.57;0.80;;;;;20.60;100730.00;;;;2078584;28;20271;-55
2021/10/01 04:36:03;;;;;;;1.77;0.80;;;;;20.50;100721.00;;;;2078464;28;20220;-55
2021/10/01 04:37:03;;;;;;;1.40;0.70;;;;;20.50;100728.00;;;;2081914;28;20236;-54
2021/10/01 04:38:04;;;;;;;1.90;0.60;;;;;20.50;100728.00;;;;2080307;28;20216;-55
2021/10/01 04:39:04;;;;;;;2.00;1.07;;;;;20.50;100722.00;;;;2079274;28;20709;-55
2021/10/01 04:40:05;;;;;;;1.90;0.70;;;;;20.50;100721.00;;;;2086762;28;20581;-55
2021/10/01 04:41:06;;;;;;;1.98;0.77;;;;;20.50;100720.00;;;;2086829;28;20209;-57
2021/10/01 04:42:06;;;;;;;1.37;0.70;;;;;20.50;100722.00;;;;2086392;28;20259;-56
2021/10/01 04:43:07;;;;;;;1.20;0.67;;;;;20.50;100719.00;;;;2086754;28;20204;-56
2021/10/01 04:44:08;;;;;;;1.43;0.70;;;;;20.50;100709.00;;;;2086997;28;20597;-54
2021/10/01 04:45:08;;;;;;;1.00;0.70;;;;;20.50;100719.00;;;;2087046;28;20209;-56
2021/10/01 04:46:08;;;;;;;2.43;1.20;;;;;20.50;100710.00;;;;2087013;28;20610;-56
2021/10/01 04:47:09;;;;;;;2.50;0.80;;;;;20.50;100712.00;;;;2086780;28;20245;-54
2021/10/01 04:48:09;;;;;;;1.40;0.70;;;;;20.50;100712.00;;;;2086752;28;20593;-54
2021/10/01 04:49:09;;;;;;;1.53;0.80;;;;;20.50;100715.00;;;;2086007;28;20225;-55
2021/10/01 04:50:10;;;;;;;2.00;0.70;;;;;20.50;100723.00;;;;2086808;28;22440;-55
2021/10/01 04:51:10;;;;;;;2.53;0.80;;;;;20.50;100726.00;;;;2086932;28;20251;-55
2021/10/01 04:52:10;;;;;;;1.40;0.60;;;;;20.50;100717.00;;;;2084424;28;20286;-56
2021/10/01 04:53:11;;;;;;;0.97;0.60;;;;;20.50;100714.00;;;;2078761;28;20221;-57
2021/10/01 04:54:11;;;;;;;1.10;0.57;;;;;20.50;100717.00;;;;2077616;28;20224;-55
2021/10/01 04:55:12;;;;;;;1.63;0.70;;;;;20.50;100711.00;;;;2078018;28;20244;-56
2021/10/01 04:56:12;;;;;;;1.00;0.70;;;;;20.50;100702.00;;;;2078405;28;20226;-56
2021/10/01 04:57:13;;;;;;;2.57;0.80;;;;;20.50;100713.00;;;;2078141;28;20222;-54
2021/10/01 04:58:13;;;;;;;1.13;0.50;;;;;20.50;100707.00;;;;2078038;28;20301;-54
2021/10/01 04:59:14;;;;;;;0.90;0.50;;;;;20.50;100711.00;;;;2078475;28;20233;-53
2021/10/01 05:00:14;;;;;;;1.87;0.63;;;;;20.50;100708.00;;;;2084274;28;20451;-53
2021/10/01 05:01:15;;;;;;;1.90;0.70;;;;;20.50;100713.00;;;;2084875;28;20297;-54
2021/10/01 05:02:15;;;;;;;0.97;0.70;;;;;20.50;100703.00;;;;2086556;28;20225;-54
2021/10/01 05:03:15;;;;;;;1.70;0.77;;;;;20.50;100706.00;;;;2078865;28;20224;-55
2021/10/01 05:04:16;;;;;;;2.13;0.80;;;;;20.50;100705.00;;;;2082452;28;20631;-55
2021/10/01 05:05:16;;;;;;;1.43;0.90;;;;;20.50;100698.00;;;;2081401;28;20217;-55
2021/10/01 05:06:17;;;;;;;1.47;0.80;;;;;20.50;100702.00;;;;2083278;28;20213;-55
2021/10/01 05:07:19;;;;;;;0.77;0.67;;;;;20.50;100688.00;;;;2079789;28;20566;-56
2021/10/01 05:08:20;;;;;;;1.13;0.70;;;;;20.30;100692.00;;;;2079741;28;20993;-53
2021/10/01 05:09:20;;;;;;;1.60;1.07;;;;;20.50;100695.00;;;;2078185;28;20221;-55